createdAt,value
2019-03-27T00:01:15.458Z,50.38
2019-03-27T00:03:44.847Z,49.44
2019-03-27T00:06:14.399Z,51.67
2019-03-27T00:08:43.776Z,52.89
2019-03-27T00:11:16.043Z,54.53
2019-03-27T00:13:44.292Z,54.82
2019-03-27T00:16:13.677Z,53.52
2019-03-27T00:18:43.054Z,54.23
2019-03-27T00:21:12.450Z,53.19
2019-03-27T00:23:41.838Z,53.79
2019-03-27T00:26:11.491Z,53.64
2019-03-27T00:28:40.879Z,53.31
2019-03-27T00:31:11.816Z,52.61
2019-03-27T00:33:41.635Z,52.37
2019-03-27T00:36:11.011Z,51.68
2019-03-27T00:38:40.403Z,50.81
2019-03-27T00:41:09.803Z,52.69
2019-03-27T00:43:39.193Z,55.79
2019-03-27T00:46:08.683Z,55.53
2019-03-27T00:48:38.079Z,55.15
2019-03-27T00:51:07.472Z,53.78
2019-03-27T00:53:36.844Z,53.35
2019-03-27T00:56:06.246Z,54.04
2019-03-27T00:58:35.625Z,54.32
2019-03-27T01:01:07.719Z,53.65
2019-03-27T01:03:37.163Z,54.20
2019-03-27T01:06:06.793Z,54.82
2019-03-27T01:08:36.202Z,56.03
2019-03-27T01:11:07.889Z,54.86
2019-03-27T01:13:38.419Z,56.52
2019-03-27T01:16:07.959Z,58.04
2019-03-27T01:18:37.439Z,56.02
2019-03-27T01:21:06.827Z,56.02
2019-03-27T01:23:36.208Z,55.01
2019-03-27T01:26:05.672Z,55.17
2019-03-27T01:28:35.051Z,54.46
2019-03-27T01:31:04.532Z,56.27
2019-03-27T01:33:33.907Z,55.92
2019-03-27T01:36:03.285Z,56.54
2019-03-27T01:38:32.741Z,56.70
2019-03-27T01:41:02.118Z,57.26
2019-03-27T01:43:31.503Z,57.79
2019-03-27T01:46:00.883Z,55.99
2019-03-27T01:48:30.654Z,55.40
2019-03-27T01:51:00.103Z,54.73
2019-03-27T01:53:29.478Z,55.02
2019-03-27T01:55:58.865Z,56.25
2019-03-27T01:58:28.954Z,56.44
2019-03-27T02:00:59.269Z,55.56
2019-03-27T02:03:29.395Z,55.79
2019-03-27T02:05:59.754Z,56.44
2019-03-27T02:08:29.919Z,56.23
2019-03-27T02:11:00.346Z,55.94
2019-03-27T02:13:30.484Z,56.88
2019-03-27T02:16:06.695Z,57.07
2019-03-27T02:18:32.075Z,56.30
2019-03-27T02:21:01.468Z,56.40
2019-03-27T02:23:31.832Z,55.48
2019-03-27T02:26:01.799Z,55.05
2019-03-27T02:28:31.956Z,55.26
2019-03-27T02:31:02.301Z,55.44
2019-03-27T02:33:32.440Z,54.76
2019-03-27T02:36:02.680Z,55.39
2019-03-27T02:38:32.919Z,53.96
2019-03-27T02:41:03.404Z,52.91
2019-03-27T02:43:33.388Z,54.25
2019-03-27T02:46:03.875Z,54.66
2019-03-27T02:48:33.863Z,54.36
2019-03-27T02:51:04.195Z,54.58
2019-03-27T02:53:34.346Z,54.10
2019-03-27T02:56:04.637Z,55.37
2019-03-27T02:58:34.765Z,57.84
2019-03-27T03:01:05.368Z,60.45
2019-03-27T03:03:35.254Z,58.60
2019-03-27T03:06:05.749Z,57.30
2019-03-27T03:08:35.850Z,52.09
2019-03-27T03:11:06.231Z,55.13
2019-03-27T03:13:36.308Z,56.78
2019-03-27T03:16:06.799Z,55.92
2019-03-27T03:18:36.820Z,56.59
2019-03-27T03:21:07.218Z,57.96
2019-03-27T03:23:37.336Z,57.41
2019-03-27T03:26:07.641Z,59.45
2019-03-27T03:28:37.881Z,58.52
2019-03-27T03:31:08.151Z,58.51
2019-03-27T03:33:38.352Z,57.56
2019-03-27T03:36:08.715Z,56.15
2019-03-27T03:38:38.884Z,57.04
2019-03-27T03:41:09.206Z,58.24
2019-03-27T03:43:39.335Z,56.25
2019-03-27T03:46:09.640Z,54.71
2019-03-27T03:48:39.859Z,57.17
2019-03-27T03:51:10.613Z,58.47
2019-03-27T03:53:40.308Z,59.45
2019-03-27T03:56:11.766Z,58.69
2019-03-27T03:58:42.965Z,57.74
2019-03-27T04:01:12.534Z,57.48
2019-03-27T04:03:44.765Z,57.50
2019-03-27T04:06:14.146Z,57.91
2019-03-27T04:08:43.602Z,57.10
2019-03-27T04:11:12.998Z,57.00
2019-03-27T04:13:42.374Z,57.74
2019-03-27T04:16:12.448Z,58.50
2019-03-27T04:18:42.604Z,58.85
2019-03-27T04:21:12.938Z,57.99
2019-03-27T04:23:43.229Z,58.07
2019-03-27T04:26:13.476Z,58.77
2019-03-27T04:28:43.579Z,58.13
2019-03-27T04:31:13.883Z,58.34
2019-03-27T04:33:44.066Z,57.88
2019-03-27T04:36:14.381Z,58.11
2019-03-27T04:38:44.626Z,58.39
2019-03-27T04:41:14.907Z,59.09
2019-03-27T04:43:45.111Z,60.48
2019-03-27T04:46:15.551Z,59.75
2019-03-27T04:48:45.573Z,60.63
2019-03-27T04:51:15.931Z,59.56
2019-03-27T04:53:46.090Z,60.35
2019-03-27T04:56:16.453Z,60.04
2019-03-27T04:58:46.795Z,57.53
2019-03-27T05:01:16.924Z,59.89
2019-03-27T05:03:47.207Z,59.53
2019-03-27T05:06:17.435Z,59.52
2019-03-27T05:08:47.542Z,59.30
2019-03-27T05:11:17.975Z,59.96
2019-03-27T05:13:49.530Z,58.92
2019-03-27T05:16:21.409Z,59.55
2019-03-27T05:18:53.548Z,60.65
2019-03-27T05:21:22.947Z,59.88
2019-03-27T05:23:52.317Z,61.05
2019-03-27T05:26:21.718Z,60.70
2019-03-27T05:28:51.145Z,59.43
2019-03-27T05:31:20.505Z,60.30
2019-03-27T05:33:50.113Z,58.16
2019-03-27T05:36:20.396Z,58.50
2019-03-27T05:38:50.662Z,57.81
2019-03-27T05:41:22.822Z,58.17
2019-03-27T05:43:52.163Z,56.39
2019-03-27T05:46:22.515Z,55.70
2019-03-27T05:48:54.531Z,56.28
2019-03-27T05:51:24.759Z,56.93
2019-03-27T05:53:54.148Z,59.00
2019-03-27T05:56:23.875Z,59.36
2019-03-27T05:58:53.342Z,58.82
2019-03-27T06:01:22.900Z,57.57
2019-03-27T06:03:53.291Z,56.51
2019-03-27T06:06:23.531Z,58.05
2019-03-27T06:08:53.720Z,56.55
2019-03-27T06:11:23.986Z,55.49
2019-03-27T06:13:54.138Z,55.91
2019-03-27T06:16:24.517Z,56.66
2019-03-27T06:18:54.646Z,56.29
2019-03-27T06:21:24.115Z,58.28
2019-03-27T06:23:53.508Z,57.68
2019-03-27T06:26:22.912Z,57.05
2019-03-27T06:28:52.294Z,56.74
2019-03-27T06:31:21.698Z,57.35
2019-03-27T06:33:51.074Z,56.98
2019-03-27T06:36:20.471Z,55.72
2019-03-27T06:38:49.865Z,54.23
2019-03-27T06:41:19.263Z,55.62
2019-03-27T06:43:48.649Z,54.93
2019-03-27T06:46:18.046Z,54.71
2019-03-27T06:48:47.423Z,54.39
2019-03-27T06:51:16.819Z,53.83
2019-03-27T06:53:46.197Z,55.34
2019-03-27T06:56:15.589Z,54.32
2019-03-27T06:58:54.613Z,52.62
2019-03-27T07:01:16.058Z,52.49
2019-03-27T07:03:46.390Z,50.71
2019-03-27T07:06:15.779Z,50.17
2019-03-27T07:08:45.163Z,50.36
2019-03-27T07:11:14.542Z,51.97
2019-03-27T07:13:43.972Z,53.53
2019-03-27T07:16:13.384Z,52.30
2019-03-27T07:18:42.801Z,53.44
2019-03-27T07:21:12.187Z,52.25
2019-03-27T07:23:41.632Z,48.33
2019-03-27T07:26:11.023Z,49.94
2019-03-27T07:28:40.438Z,50.97
2019-03-27T07:31:09.806Z,50.41
2019-03-27T07:33:39.187Z,49.94
2019-03-27T07:36:08.576Z,49.17
2019-03-27T07:38:37.955Z,49.57
2019-03-27T07:41:07.344Z,46.24
2019-03-27T07:43:36.738Z,47.98
2019-03-27T07:46:06.947Z,46.83
2019-03-27T07:48:36.321Z,45.01
2019-03-27T07:51:05.775Z,45.81
2019-03-27T07:53:35.166Z,45.86
2019-03-27T07:56:04.614Z,44.89
2019-03-27T07:58:35.131Z,45.19
2019-03-27T08:01:04.909Z,44.21
2019-03-27T08:03:35.318Z,45.84
2019-03-27T08:06:05.687Z,45.79
2019-03-27T08:08:37.786Z,45.58
2019-03-27T08:11:07.247Z,43.93
2019-03-27T08:13:36.647Z,40.21
2019-03-27T08:16:06.384Z,42.30
2019-03-27T08:18:36.747Z,44.03
2019-03-27T08:21:07.044Z,42.76
2019-03-27T08:23:37.196Z,42.44
2019-03-27T08:26:07.428Z,42.46
2019-03-27T08:28:37.640Z,40.53
2019-03-27T08:31:07.970Z,39.91
2019-03-27T08:33:38.180Z,39.19
2019-03-27T08:36:08.373Z,38.53
2019-03-27T08:38:38.714Z,38.31
2019-03-27T08:41:08.954Z,37.47
2019-03-27T08:43:58.503Z,39.39
2019-03-27T08:46:27.892Z,38.81
2019-03-27T08:48:58.342Z,39.05
2019-03-27T08:51:27.740Z,39.33
2019-03-27T08:53:58.089Z,40.04
2019-03-27T08:56:27.469Z,39.16
2019-03-27T08:58:56.862Z,38.56
2019-03-27T09:01:26.239Z,37.54
2019-03-27T09:03:55.715Z,38.71
2019-03-27T09:06:33.462Z,37.27
2019-03-27T09:08:56.187Z,38.42
2019-03-27T09:11:25.573Z,38.43
2019-03-27T09:13:54.981Z,37.11
2019-03-27T09:16:24.374Z,37.45
2019-03-27T09:18:53.768Z,39.94
2019-03-27T09:21:23.147Z,37.54
2019-03-27T09:23:52.527Z,38.39
2019-03-27T09:26:22.292Z,37.86
2019-03-27T09:28:51.669Z,39.55
2019-03-27T09:31:21.067Z,38.98
2019-03-27T09:33:50.448Z,39.52
2019-03-27T09:36:19.828Z,40.90
2019-03-27T09:38:49.255Z,38.47
2019-03-27T09:41:21.328Z,38.58
2019-03-27T09:43:49.729Z,38.12
2019-03-27T09:46:19.134Z,38.55
2019-03-27T09:48:48.515Z,38.55
2019-03-27T09:51:17.914Z,35.54
2019-03-27T09:53:47.312Z,37.79
2019-03-27T09:56:19.298Z,39.66
2019-03-27T09:58:47.853Z,38.25
2019-03-27T10:01:17.292Z,40.54
2019-03-27T10:03:47.208Z,40.14
2019-03-27T10:06:17.389Z,39.25
2019-03-27T10:08:47.598Z,39.95
2019-03-27T10:11:17.912Z,38.23
2019-03-27T10:13:48.157Z,38.54
2019-03-27T10:16:18.367Z,40.98
2019-03-27T10:18:48.716Z,39.44
2019-03-27T10:21:18.877Z,40.94
2019-03-27T10:23:49.219Z,40.86
2019-03-27T10:26:19.306Z,42.24
2019-03-27T10:28:48.692Z,40.52
2019-03-27T10:31:18.321Z,38.10
2019-03-27T10:33:47.720Z,40.28
2019-03-27T10:36:17.108Z,39.86
2019-03-27T10:38:46.496Z,39.62
2019-03-27T10:41:15.889Z,39.62
2019-03-27T10:43:45.272Z,39.10
2019-03-27T10:46:14.669Z,40.74
2019-03-27T10:48:52.345Z,39.78
2019-03-27T10:51:15.328Z,39.82
2019-03-27T10:53:44.704Z,39.79
2019-03-27T10:56:14.092Z,39.46
2019-03-27T10:58:44.545Z,39.50
2019-03-27T11:01:13.966Z,37.11
2019-03-27T11:03:43.338Z,38.75
2019-03-27T11:06:12.730Z,37.58
2019-03-27T11:08:42.115Z,39.81
2019-03-27T11:11:11.492Z,40.13
2019-03-27T11:13:40.886Z,39.87
2019-03-27T11:16:10.360Z,40.21
2019-03-27T11:18:39.843Z,40.21
2019-03-27T11:21:09.238Z,39.86
2019-03-27T11:23:38.693Z,40.49
2019-03-27T11:26:08.154Z,39.35
2019-03-27T11:28:37.679Z,37.91
2019-03-27T11:31:07.085Z,38.10
2019-03-27T11:33:36.460Z,39.41
2019-03-27T11:36:05.943Z,38.33
2019-03-27T11:38:37.485Z,36.86
2019-03-27T11:41:06.482Z,38.07
2019-03-27T11:43:35.890Z,37.54
2019-03-27T11:46:05.276Z,40.37
2019-03-27T11:48:34.669Z,39.65
2019-03-27T11:51:04.050Z,41.44
2019-03-27T11:53:33.443Z,40.53
2019-03-27T11:56:03.518Z,40.38
2019-03-27T11:58:33.130Z,39.34
2019-03-27T12:01:02.501Z,39.86
2019-03-27T12:03:31.948Z,42.32
2019-03-27T12:06:01.333Z,41.67
2019-03-27T12:08:30.890Z,40.51
2019-03-27T12:11:00.271Z,41.60
2019-03-27T12:13:30.037Z,40.70
2019-03-27T12:16:00.299Z,37.67
2019-03-27T12:18:32.234Z,36.98
2019-03-27T12:21:01.755Z,40.54
2019-03-27T12:23:31.136Z,40.81
2019-03-27T12:26:01.527Z,42.38
2019-03-27T12:28:31.541Z,41.32
2019-03-27T12:31:01.822Z,43.55
2019-03-27T12:33:32.153Z,44.77
2019-03-27T12:36:02.389Z,43.22
2019-03-27T12:38:32.560Z,44.74
2019-03-27T12:41:02.990Z,41.96
2019-03-27T12:43:33.080Z,45.30
2019-03-27T12:46:03.411Z,44.45
2019-03-27T12:48:33.615Z,44.25
2019-03-27T12:51:12.636Z,44.69
2019-03-27T12:53:35.301Z,44.31
2019-03-27T12:56:04.744Z,44.03
2019-03-27T12:58:35.194Z,43.18
2019-03-27T13:01:05.305Z,42.83
2019-03-27T13:03:35.066Z,42.41
2019-03-27T13:06:05.504Z,41.36
2019-03-27T13:08:35.772Z,41.24
2019-03-27T13:11:05.847Z,40.85
2019-03-27T13:13:36.041Z,43.01
2019-03-27T13:16:06.382Z,41.94
2019-03-27T13:18:36.538Z,43.76
2019-03-27T13:21:06.876Z,41.02
2019-03-27T13:23:37.432Z,40.48
2019-03-27T13:26:07.446Z,40.37
2019-03-27T13:28:48.207Z,42.11
2019-03-27T13:31:08.606Z,42.74
2019-03-27T13:33:38.186Z,42.21
2019-03-27T13:36:08.531Z,42.17
2019-03-27T13:38:38.819Z,44.04
2019-03-27T13:41:08.917Z,44.89
2019-03-27T13:43:38.993Z,41.48
2019-03-27T13:46:09.549Z,42.08
2019-03-27T13:48:40.008Z,43.64
2019-03-27T13:51:09.984Z,44.07
2019-03-27T13:53:39.921Z,44.31
2019-03-27T13:56:10.177Z,46.07
2019-03-27T13:58:40.381Z,43.60
2019-03-27T14:01:12.986Z,46.61
2019-03-27T14:03:41.747Z,46.79
2019-03-27T14:06:12.279Z,45.43
2019-03-27T14:08:41.667Z,44.74
2019-03-27T14:11:11.599Z,45.85
2019-03-27T14:13:43.401Z,45.14
2019-03-27T14:16:13.168Z,43.53
2019-03-27T14:18:42.557Z,43.79
2019-03-27T14:21:12.640Z,44.48
2019-03-27T14:23:42.810Z,45.50
2019-03-27T14:26:13.116Z,46.36
2019-03-27T14:28:43.360Z,45.20
2019-03-27T14:31:13.947Z,45.52
2019-03-27T14:33:43.819Z,44.74
2019-03-27T14:36:14.342Z,45.97
2019-03-27T14:38:44.343Z,44.61
2019-03-27T14:41:14.573Z,44.80
2019-03-27T14:43:44.789Z,43.52
2019-03-27T14:46:15.159Z,43.08
2019-03-27T14:48:45.259Z,42.46
2019-03-27T14:51:15.617Z,39.60
2019-03-27T14:53:45.772Z,40.23
2019-03-27T14:56:16.109Z,42.89
2019-03-27T14:58:46.222Z,42.39
2019-03-27T15:01:16.551Z,42.88
2019-03-27T15:03:46.843Z,43.53
2019-03-27T15:06:17.266Z,43.62
2019-03-27T15:08:47.355Z,41.18
2019-03-27T15:11:17.642Z,44.61
2019-03-27T15:13:47.877Z,45.85
2019-03-27T15:16:18.124Z,43.90
2019-03-27T15:18:48.320Z,45.58
2019-03-27T15:21:18.643Z,44.81
2019-03-27T15:23:48.872Z,44.59
2019-03-27T15:26:19.184Z,45.50
2019-03-27T15:28:50.858Z,45.91
2019-03-27T15:31:21.142Z,45.91
2019-03-27T15:33:50.552Z,44.78
2019-03-27T15:36:20.244Z,46.47
2019-03-27T15:38:50.389Z,46.93
2019-03-27T15:41:20.759Z,46.43
2019-03-27T15:43:50.935Z,46.78
2019-03-27T15:46:21.176Z,45.59
2019-03-27T15:48:51.391Z,45.43
2019-03-27T15:51:21.732Z,45.91
2019-03-27T15:53:51.949Z,44.35
2019-03-27T15:56:22.207Z,45.94
2019-03-27T15:58:52.512Z,45.27
2019-03-27T16:01:22.706Z,46.35
2019-03-27T16:03:52.906Z,46.64
2019-03-27T16:06:23.243Z,46.92
2019-03-27T16:08:54.640Z,44.53
2019-03-27T16:11:24.013Z,45.46
2019-03-27T16:13:54.160Z,45.07
2019-03-27T16:16:24.270Z,45.05
2019-03-27T16:18:54.477Z,45.52
2019-03-27T16:21:24.808Z,47.19
2019-03-27T16:24:05.755Z,46.08
2019-03-27T16:26:26.157Z,45.93
2019-03-27T16:28:55.577Z,46.30
2019-03-27T16:31:25.919Z,47.12
2019-03-27T16:33:56.029Z,46.87
2019-03-27T16:36:26.374Z,47.07
2019-03-27T16:38:56.543Z,47.04
2019-03-27T16:41:26.903Z,47.79
2019-03-27T16:43:57.136Z,48.22
2019-03-27T16:46:27.551Z,48.42
2019-03-27T16:48:57.684Z,49.16
2019-03-27T16:51:27.949Z,49.25
2019-03-27T16:53:58.130Z,49.06
2019-03-27T16:56:28.472Z,48.52
2019-03-27T16:58:58.647Z,49.50
2019-03-27T17:01:29.004Z,49.63
2019-03-27T17:03:59.224Z,49.95
2019-03-27T17:06:29.510Z,50.19
2019-03-27T17:08:59.740Z,49.36
2019-03-27T17:11:30.063Z,49.88
2019-03-27T17:14:00.297Z,50.33
2019-03-27T17:16:30.642Z,50.47
2019-03-27T17:19:00.834Z,51.73
2019-03-27T17:21:31.307Z,51.92
2019-03-27T17:24:01.390Z,51.62
2019-03-27T17:26:31.609Z,51.45
2019-03-27T17:29:01.833Z,51.25
2019-03-27T17:31:32.069Z,50.81
2019-03-27T17:34:02.134Z,50.84
2019-03-27T17:36:32.418Z,51.53
2019-03-27T17:39:03.084Z,51.25
2019-03-27T17:41:33.902Z,51.90
2019-03-27T17:44:03.363Z,53.01
2019-03-27T17:46:33.410Z,52.42
2019-03-27T17:49:03.664Z,52.30
2019-03-27T17:51:33.886Z,50.56
2019-03-27T17:54:04.063Z,51.47
2019-03-27T17:56:34.592Z,50.45
2019-03-27T17:59:05.037Z,49.62
2019-03-27T18:01:34.994Z,51.35
2019-03-27T18:04:05.138Z,51.70
2019-03-27T18:06:35.463Z,50.76
2019-03-27T18:09:07.253Z,49.05
2019-03-27T18:11:36.640Z,50.29
2019-03-27T18:14:06.122Z,50.32
2019-03-27T18:16:36.454Z,50.49
2019-03-27T18:19:06.605Z,50.79
2019-03-27T18:21:36.941Z,51.38
2019-03-27T18:24:07.218Z,51.01
2019-03-27T18:26:37.365Z,52.24
2019-03-27T18:29:07.457Z,51.26
2019-03-27T18:31:37.804Z,51.91
2019-03-27T18:34:08.288Z,50.13
2019-03-27T18:36:38.351Z,50.95
2019-03-27T18:39:09.023Z,49.52
2019-03-27T18:41:38.861Z,49.33
2019-03-27T18:44:09.115Z,49.55
2019-03-27T18:46:39.408Z,48.67
2019-03-27T18:49:10.542Z,47.91
2019-03-27T18:51:40.064Z,47.54
2019-03-27T18:54:10.105Z,47.27
2019-03-27T18:56:40.341Z,46.86
2019-03-27T18:59:11.552Z,46.32
2019-03-27T19:01:41.022Z,45.61
2019-03-27T19:04:10.990Z,45.29
2019-03-27T19:06:41.304Z,45.41
2019-03-27T19:09:11.573Z,45.24
2019-03-27T19:11:41.600Z,45.46
2019-03-27T19:14:11.898Z,45.70
2019-03-27T19:16:42.152Z,45.91
2019-03-27T19:19:12.329Z,44.61
2019-03-27T19:21:42.562Z,45.15
2019-03-27T19:24:16.553Z,45.65
2019-03-27T19:26:44.290Z,46.02
2019-03-27T19:29:13.660Z,46.29
2019-03-27T19:31:43.631Z,46.78
2019-03-27T19:34:13.755Z,46.68
2019-03-27T19:36:44.013Z,46.55
2019-03-27T19:39:14.763Z,46.80
2019-03-27T19:41:44.458Z,47.28
2019-03-27T19:44:14.601Z,47.67
2019-03-27T19:46:44.989Z,47.77
2019-03-27T19:49:15.778Z,48.17
2019-03-27T19:51:45.542Z,46.02
2019-03-27T19:54:26.451Z,47.20
2019-03-27T19:56:46.976Z,48.82
2019-03-27T19:59:17.501Z,48.75
2019-03-27T20:01:48.891Z,48.43
2019-03-27T20:04:18.332Z,49.85
2019-03-27T20:06:49.663Z,48.96
2019-03-27T20:09:19.052Z,50.79
2019-03-27T20:11:48.533Z,51.04
2019-03-27T20:14:18.103Z,50.89
2019-03-27T20:16:47.479Z,51.05
2019-03-27T20:19:16.859Z,51.10
2019-03-27T20:21:46.380Z,51.69
2019-03-27T20:24:15.820Z,52.52
2019-03-27T20:26:45.275Z,52.27
2019-03-27T20:29:15.730Z,52.29
2019-03-27T20:31:45.105Z,53.36
2019-03-27T20:34:14.907Z,53.08
2019-03-27T20:36:44.290Z,53.26
2019-03-27T20:39:13.749Z,52.47
2019-03-27T20:41:43.306Z,52.98
2019-03-27T20:44:12.692Z,53.45
2019-03-27T20:46:42.078Z,53.61
2019-03-27T20:49:11.524Z,53.16
2019-03-27T20:51:40.927Z,54.16
2019-03-27T20:54:10.308Z,54.66
2019-03-27T20:56:39.702Z,55.23
2019-03-27T20:59:09.661Z,56.03
2019-03-27T21:01:39.617Z,55.77
2019-03-27T21:04:09.074Z,55.69
2019-03-27T21:06:38.462Z,55.87
2019-03-27T21:09:07.938Z,57.49
2019-03-27T21:11:37.495Z,56.77
2019-03-27T21:14:06.890Z,56.38
2019-03-27T21:16:36.289Z,56.24
2019-03-27T21:19:05.745Z,57.31
2019-03-27T21:21:35.126Z,58.33
2019-03-27T21:24:04.571Z,58.71
2019-03-27T21:26:33.976Z,58.99
2019-03-27T21:29:03.498Z,60.71
2019-03-27T21:31:32.892Z,59.24
2019-03-27T21:34:02.338Z,58.40
2019-03-27T21:36:31.737Z,58.08
2019-03-27T21:39:01.120Z,57.96
2019-03-27T21:41:32.120Z,58.68
2019-03-27T21:44:01.507Z,58.95
2019-03-27T21:46:30.890Z,59.53
2019-03-27T21:49:00.283Z,60.32
2019-03-27T21:51:30.557Z,60.44
2019-03-27T21:54:00.638Z,61.42
2019-03-27T21:56:30.480Z,61.21
2019-03-27T21:59:02.453Z,61.55
2019-03-27T22:01:31.821Z,61.69
2019-03-27T22:04:01.220Z,62.32
2019-03-27T22:06:30.689Z,61.79
2019-03-27T22:09:00.616Z,63.67
2019-03-27T22:11:31.621Z,62.48
2019-03-27T22:14:01.010Z,61.10
2019-03-27T22:16:30.715Z,61.58
2019-03-27T22:19:00.712Z,62.13
2019-03-27T22:21:30.638Z,62.14
2019-03-27T22:24:00.715Z,62.29
2019-03-27T22:26:30.702Z,61.80
2019-03-27T22:29:00.702Z,61.42
2019-03-27T22:31:30.707Z,61.52
2019-03-27T22:34:00.803Z,61.56
2019-03-27T22:36:31.008Z,61.59
2019-03-27T22:39:00.840Z,61.84
2019-03-27T22:41:31.841Z,61.67
2019-03-27T22:44:01.239Z,62.24
2019-03-27T22:46:30.751Z,62.79
2019-03-27T22:49:00.764Z,62.51
2019-03-27T22:51:30.776Z,63.75
2019-03-27T22:54:00.784Z,63.30
2019-03-27T22:56:30.800Z,62.53
2019-03-27T22:59:00.813Z,63.34
2019-03-27T23:01:36.431Z,63.22
2019-03-27T23:04:05.983Z,63.45
2019-03-27T23:06:35.368Z,63.52
2019-03-27T23:09:05.823Z,63.66
2019-03-27T23:11:35.568Z,65.09
2019-03-27T23:14:04.954Z,64.29
2019-03-27T23:16:34.350Z,64.74
2019-03-27T23:19:03.762Z,64.92
2019-03-27T23:21:33.144Z,66.23
2019-03-27T23:24:02.520Z,65.15
2019-03-27T23:26:31.988Z,65.06
2019-03-27T23:29:01.362Z,64.50
2019-03-27T23:31:31.020Z,65.62
2019-03-27T23:34:01.018Z,64.67
2019-03-27T23:36:31.053Z,65.18
2019-03-27T23:39:01.515Z,66.23
2019-03-27T23:41:32.668Z,66.24
2019-03-27T23:44:02.060Z,65.54
2019-03-27T23:46:32.034Z,65.44
2019-03-27T23:49:02.349Z,65.70
2019-03-27T23:51:32.596Z,66.53
2019-03-27T23:54:02.939Z,67.12
2019-03-27T23:56:33.150Z,66.23
2019-03-27T23:59:03.453Z,65.52
